createdAt,value
2023-01-01T00:01:30.975Z,318.25
2023-01-01T00:04:01.050Z,395.50
2023-01-01T00:06:31.660Z,246.50
2023-01-01T00:09:21.527Z,243.50
2023-01-01T00:11:51.276Z,243.50
2023-01-01T00:14:20.989Z,231.75
2023-01-01T00:16:50.905Z,225.75
2023-01-01T00:19:21.759Z,289.75
2023-01-01T00:21:52.383Z,312.50
2023-01-01T00:24:22.993Z,322.75
2023-01-01T00:26:53.626Z,325.75
2023-01-01T00:29:23.361Z,353.67
2023-01-01T00:31:54.010Z,312.75
2023-01-01T00:34:23.759Z,260.00
2023-01-01T00:36:53.493Z,262.67
2023-01-01T00:39:23.315Z,262.33
2023-01-01T00:41:53.898Z,290.00
2023-01-01T00:44:24.494Z,279.25
2023-01-01T00:46:54.268Z,267.67
2023-01-01T00:49:24.015Z,259.33
2023-01-01T00:51:54.903Z,294.50
2023-01-01T00:54:25.484Z,307.00
2023-01-01T00:56:55.894Z,276.67
2023-01-01T00:59:28.972Z,293.75
2023-01-01T01:01:59.979Z,247.25
2023-01-01T01:04:29.855Z,272.67
2023-01-01T01:06:59.472Z,258.00
2023-01-01T01:09:29.184Z,274.33
2023-01-01T01:12:18.785Z,313.75
2023-01-01T01:14:49.021Z,331.67
2023-01-01T01:17:19.663Z,330.75
2023-01-01T01:19:50.321Z,331.75
2023-01-01T01:22:27.792Z,326.75
2023-01-01T01:24:59.081Z,318.50
2023-01-01T01:27:28.940Z,297.33
2023-01-01T01:29:59.571Z,323.50
2023-01-01T01:32:30.161Z,307.75
2023-01-01T01:35:00.741Z,313.00
2023-01-01T01:37:31.299Z,286.00
2023-01-01T01:40:01.997Z,315.50
2023-01-01T01:42:32.596Z,296.00
2023-01-01T01:45:07.374Z,296.00
2023-01-01T01:47:58.179Z,285.75
2023-01-01T01:50:38.316Z,271.50
2023-01-01T01:53:24.138Z,200.25
2023-01-01T01:56:05.155Z,134.75
2023-01-01T01:58:36.772Z,135.00
2023-01-01T02:01:07.456Z,137.50
2023-01-01T02:04:02.216Z,144.25
2023-01-01T02:06:33.779Z,168.00
2023-01-01T02:09:08.171Z,131.25
2023-01-01T02:11:38.729Z,107.00
2023-01-01T02:14:09.646Z,120.50
2023-01-01T02:17:55.636Z,110.50
2023-01-01T02:20:52.109Z,126.00
2023-01-01T02:23:44.768Z,123.00
2023-01-01T02:26:55.098Z,123.75
2023-01-01T02:29:51.514Z,114.50
2023-01-01T02:33:06.140Z,126.50
2023-01-01T02:35:52.410Z,130.50
2023-01-01T02:38:51.405Z,107.25
2023-01-01T02:41:44.628Z,104.67
2023-01-01T02:44:14.567Z,87.00
2023-01-01T02:46:44.114Z,80.50
2023-01-01T02:49:13.939Z,83.00
2023-01-01T02:52:12.241Z,81.33
2023-01-01T02:55:02.942Z,85.00
2023-01-01T02:57:44.055Z,85.50
2023-01-01T03:00:31.512Z,97.67
2023-01-01T03:04:13.475Z,89.33
2023-01-01T03:11:06.628Z,79.63
2023-01-01T03:14:32.817Z,86.33
2023-01-01T03:17:26.938Z,85.50
2023-01-01T03:20:01.907Z,84.33
2023-01-01T03:25:29.697Z,78.33
2023-01-01T03:28:26.334Z,95.67
2023-01-01T03:30:57.766Z,88.00
2023-01-01T03:33:48.039Z,95.67
2023-01-01T03:36:35.532Z,87.00
2023-01-01T03:39:20.704Z,86.33
2023-01-01T03:42:38.456Z,85.50
2023-01-01T03:45:36.815Z,89.00
2023-01-01T03:48:07.439Z,90.00
2023-01-01T03:51:27.772Z,81.00
2023-01-01T03:54:09.423Z,82.33
2023-01-01T03:57:16.023Z,80.00
2023-01-01T04:00:11.474Z,85.33
2023-01-01T04:03:06.415Z,88.00
2023-01-01T04:05:42.933Z,93.33
2023-01-01T04:08:15.481Z,93.67
2023-01-01T04:11:00.982Z,102.33
2023-01-01T04:13:30.625Z,103.00
2023-01-01T04:16:00.483Z,93.67
2023-01-01T04:18:30.970Z,84.50
2023-01-01T04:21:00.614Z,91.67
2023-01-01T04:23:30.282Z,98.33
2023-01-01T04:25:59.875Z,98.33
2023-01-01T04:28:29.606Z,93.33
2023-01-01T04:31:03.107Z,88.33
2023-01-01T04:33:33.100Z,83.67
2023-01-01T04:36:09.362Z,90.00
2023-01-01T04:38:39.346Z,90.00
2023-01-01T04:41:10.430Z,83.00
2023-01-01T04:43:40.139Z,93.33
2023-01-01T04:46:10.030Z,93.67
2023-01-01T04:48:39.714Z,88.00
2023-01-01T04:51:12.759Z,87.00
2023-01-01T04:53:43.345Z,90.67
2023-01-01T04:56:23.497Z,90.00
2023-01-01T04:58:54.086Z,95.33
2023-01-01T05:01:31.490Z,94.00
2023-01-01T05:04:01.985Z,98.67
2023-01-01T05:06:31.649Z,101.00
2023-01-01T05:09:04.214Z,146.75
2023-01-01T05:11:33.944Z,98.33
2023-01-01T05:14:03.835Z,84.33
2023-01-01T05:16:38.256Z,97.33
2023-01-01T05:19:10.721Z,100.25
2023-01-01T05:21:41.359Z,99.50
2023-01-01T05:24:11.496Z,104.33
2023-01-01T05:26:45.530Z,111.50
2023-01-01T05:29:17.376Z,105.50
2023-01-01T05:31:47.311Z,62.00
2023-01-01T05:34:17.007Z,96.67
2023-01-01T05:36:46.700Z,86.67
2023-01-01T05:39:17.187Z,105.75
2023-01-01T05:41:46.869Z,105.33
2023-01-01T05:44:17.492Z,101.00
2023-01-01T05:46:47.128Z,96.67
2023-01-01T05:49:16.777Z,101.33
2023-01-01T05:51:46.430Z,103.00
2023-01-01T05:56:44.404Z,148.50
2023-01-01T05:59:12.387Z,138.00
2023-01-01T06:01:45.891Z,107.50
2023-01-01T06:04:16.908Z,127.50
2023-01-01T06:06:46.551Z,145.50
2023-01-01T06:09:17.047Z,154.25
2023-01-01T06:11:47.504Z,119.50
2023-01-01T06:14:17.165Z,97.00
2023-01-01T06:16:47.690Z,105.00
2023-01-01T06:19:17.332Z,116.00
2023-01-01T06:21:47.038Z,86.33
2023-01-01T06:24:16.631Z,94.00
2023-01-01T06:26:46.251Z,89.33
2023-01-01T06:29:15.872Z,88.67
2023-01-01T06:31:45.531Z,86.00
2023-01-01T06:34:15.162Z,83.33
2023-01-01T06:36:44.805Z,90.00
2023-01-01T06:39:14.473Z,106.67
2023-01-01T06:41:42.298Z,141.50
2023-01-01T06:44:12.749Z,114.25
2023-01-01T06:46:42.456Z,85.67
2023-01-01T06:49:13.361Z,73.67
2023-01-01T06:51:44.664Z,68.67
2023-01-01T06:54:14.298Z,88.00
2023-01-01T06:56:44.793Z,115.25
2023-01-01T06:59:16.551Z,123.00
2023-01-01T07:01:47.106Z,151.00
2023-01-01T07:04:17.738Z,108.25
2023-01-01T07:06:47.352Z,91.33
2023-01-01T07:09:16.953Z,79.00
2023-01-01T07:11:46.489Z,76.67
2023-01-01T07:14:16.077Z,76.67
2023-01-01T07:16:45.652Z,80.67
2023-01-01T07:19:15.258Z,70.67
2023-01-01T07:21:51.985Z,73.50
2023-01-01T07:24:23.520Z,83.67
2023-01-01T07:26:53.165Z,86.33
2023-01-01T07:29:22.759Z,79.67
2023-01-01T07:31:52.475Z,95.00
2023-01-01T07:34:23.988Z,94.33
2023-01-01T07:36:55.428Z,144.25
2023-01-01T07:39:25.928Z,129.00
2023-01-01T07:41:55.565Z,90.00
2023-01-01T07:44:25.163Z,92.00
2023-01-01T07:47:06.445Z,97.00
2023-01-01T07:49:36.039Z,81.00
2023-01-01T07:52:05.712Z,87.00
2023-01-01T07:54:35.300Z,82.67
2023-01-01T07:57:04.950Z,85.00
2023-01-01T07:59:34.637Z,83.33
2023-01-01T08:02:04.932Z,82.33
2023-01-01T08:04:34.592Z,86.00
2023-01-01T08:07:04.155Z,67.67
2023-01-01T08:09:33.806Z,89.00
2023-01-01T08:12:03.599Z,84.33
2023-01-01T08:14:31.371Z,104.50
2023-01-01T08:17:00.987Z,95.33
2023-01-01T08:19:30.609Z,89.33
2023-01-01T08:22:00.319Z,90.00
2023-01-01T08:24:29.033Z,85.00
2023-01-01T08:26:58.706Z,87.33
2023-01-01T08:29:28.499Z,75.67
2023-01-01T08:31:58.390Z,77.33
2023-01-01T08:34:28.839Z,105.75
2023-01-01T08:36:57.136Z,124.00
2023-01-01T08:39:27.871Z,106.50
2023-01-01T08:41:57.550Z,84.67
2023-01-01T08:44:27.101Z,65.33
2023-01-01T08:46:56.650Z,63.67
2023-01-01T08:49:26.216Z,67.67
2023-01-01T08:51:55.804Z,77.00
2023-01-01T08:54:25.367Z,67.67
2023-01-01T08:56:54.922Z,73.67
2023-01-01T08:59:24.908Z,86.67
2023-01-01T09:01:52.879Z,93.00
2023-01-01T09:04:22.547Z,76.67
2023-01-01T09:06:52.731Z,69.33
2023-01-01T09:09:27.279Z,73.00
2023-01-01T09:12:06.139Z,92.33
2023-01-01T09:14:36.167Z,72.67
2023-01-01T09:17:05.770Z,75.67
2023-01-01T09:19:35.387Z,73.33
2023-01-01T09:22:04.870Z,65.00
2023-01-01T09:24:33.481Z,356.75
2023-01-01T09:27:03.104Z,76.67
2023-01-01T09:29:32.761Z,71.33
2023-01-01T09:32:02.396Z,74.00
2023-01-01T09:34:32.927Z,102.00
2023-01-01T09:37:02.589Z,137.50
2023-01-01T09:39:32.168Z,63.67
2023-01-01T09:42:50.130Z,62.67
2023-01-01T09:45:55.489Z,65.00
2023-01-01T09:48:29.829Z,61.00
2023-01-01T09:51:03.687Z,98.67
2023-01-01T09:53:57.404Z,58.00
2023-01-01T09:56:29.965Z,63.00
2023-01-01T09:58:59.989Z,59.67
2023-01-01T10:02:12.019Z,59.67
2023-01-01T10:05:09.881Z,69.00
2023-01-01T10:08:02.045Z,61.00
2023-01-01T10:10:50.187Z,58.33
2023-01-01T10:13:52.036Z,62.00
2023-01-01T10:16:30.866Z,59.67
2023-01-01T10:19:23.543Z,53.00
2023-01-01T10:21:59.476Z,59.00
2023-01-01T10:24:37.779Z,64.00
2023-01-01T10:27:09.433Z,61.67
2023-01-01T10:29:48.545Z,63.00
2023-01-01T10:32:29.344Z,56.00
2023-01-01T10:35:01.077Z,64.33
2023-01-01T10:37:37.141Z,70.00
2023-01-01T10:40:24.134Z,64.00
2023-01-01T10:42:57.750Z,58.33
2023-01-01T10:45:47.530Z,60.00
2023-01-01T10:48:22.182Z,0.00
2023-01-01T10:51:06.740Z,91.67
2023-01-01T10:53:52.437Z,97.33
2023-01-01T10:56:29.030Z,77.33
2023-01-01T10:58:59.005Z,68.67
2023-01-01T11:01:34.220Z,59.67
2023-01-01T11:04:21.635Z,61.00
2023-01-01T11:06:51.249Z,63.67
2023-01-01T11:09:29.756Z,54.33
2023-01-01T11:12:19.098Z,75.33
2023-01-01T11:14:59.599Z,66.00
2023-01-01T11:17:36.436Z,61.33
2023-01-01T11:20:07.930Z,62.33
2023-01-01T11:22:50.455Z,60.67
2023-01-01T11:25:32.705Z,63.33
2023-01-01T11:28:17.534Z,55.00
2023-01-01T11:31:07.306Z,57.33
2023-01-01T11:33:53.126Z,52.00
2023-01-01T11:36:35.133Z,102.33
2023-01-01T11:39:27.855Z,116.50
2023-01-01T11:41:59.443Z,53.00
2023-01-01T11:44:48.954Z,60.00
2023-01-01T11:47:42.963Z,56.00
2023-01-01T11:50:32.242Z,57.00
2023-01-01T11:53:28.204Z,70.33
2023-01-01T11:56:17.914Z,49.67
2023-01-01T11:59:00.513Z,50.33
2023-01-01T12:02:05.127Z,51.33
2023-01-01T12:04:46.462Z,54.67
2023-01-01T12:07:39.212Z,60.00
2023-01-01T12:10:31.314Z,57.33
2023-01-01T12:13:18.864Z,61.33
2023-01-01T12:16:09.777Z,61.33
2023-01-01T12:18:55.791Z,62.67
2023-01-01T12:21:30.175Z,59.33
2023-01-01T12:24:08.004Z,61.00
2023-01-01T12:27:13.840Z,60.00
2023-01-01T12:30:13.743Z,63.00
2023-01-01T12:33:24.331Z,75.25
2023-01-01T12:36:25.522Z,63.50
2023-01-01T12:39:40.695Z,125.33
2023-01-01T12:42:41.981Z,69.50
2023-01-01T12:46:17.381Z,77.67
2023-01-01T12:49:08.852Z,75.33
2023-01-01T12:52:19.660Z,75.33
2023-01-01T12:55:45.287Z,73.33
2023-01-01T12:58:59.252Z,82.00
2023-01-01T13:01:33.754Z,93.00
2023-01-01T13:04:16.600Z,86.67
2023-01-01T13:07:03.776Z,72.67
2023-01-01T13:09:44.777Z,78.33
2023-01-01T13:12:24.665Z,107.88
2023-01-01T13:14:54.290Z,87.67
2023-01-01T13:17:25.592Z,104.00
2023-01-01T13:20:20.428Z,55.67
2023-01-01T13:22:50.047Z,92.25
2023-01-01T13:25:25.127Z,71.75
2023-01-01T13:27:57.851Z,93.33
2023-01-01T13:30:44.299Z,63.67
2023-01-01T13:33:37.120Z,83.25
2023-01-01T13:36:19.897Z,93.50
2023-01-01T13:38:54.529Z,64.67
2023-01-01T13:41:44.055Z,78.00
2023-01-01T13:44:24.474Z,67.25
2023-01-01T13:47:27.649Z,75.25
2023-01-01T13:50:46.706Z,70.67
2023-01-01T13:53:33.208Z,102.33
2023-01-01T13:56:57.573Z,81.33
2023-01-01T13:59:38.663Z,63.33
2023-01-01T14:02:30.464Z,69.33
2023-01-01T14:05:24.674Z,76.50
2023-01-01T14:07:56.414Z,81.33
2023-01-01T14:10:37.007Z,76.33
2023-01-01T14:13:06.519Z,73.67
2023-01-01T14:15:52.599Z,83.00
2023-01-01T14:18:33.902Z,103.00
2023-01-01T14:21:34.318Z,90.25
2023-01-01T14:24:24.631Z,108.50
2023-01-01T14:27:30.475Z,93.50
2023-01-01T14:30:19.615Z,107.50
2023-01-01T14:33:30.958Z,119.00
2023-01-01T14:36:34.349Z,86.00
2023-01-01T14:39:37.799Z,102.00
2023-01-01T14:42:29.162Z,96.67
2023-01-01T14:45:19.488Z,113.00
2023-01-01T14:48:20.854Z,99.75
2023-01-01T14:51:16.024Z,90.00
2023-01-01T14:53:55.392Z,91.75
2023-01-01T14:56:36.648Z,91.00
2023-01-01T14:59:32.234Z,128.63
2023-01-01T15:02:20.451Z,138.50
2023-01-01T15:04:49.378Z,172.00
2023-01-01T15:07:30.889Z,152.88
2023-01-01T15:10:03.749Z,70.00
2023-01-01T15:12:37.467Z,75.00
2023-01-01T15:15:34.941Z,77.67
2023-01-01T15:18:05.086Z,83.67
2023-01-01T15:20:36.312Z,101.00
2023-01-01T15:23:10.383Z,125.00
2023-01-01T15:25:43.323Z,90.00
2023-01-01T15:28:20.850Z,73.00
2023-01-01T15:30:56.013Z,83.67
2023-01-01T15:33:27.320Z,82.67
2023-01-01T15:36:01.227Z,70.00
2023-01-01T15:38:34.762Z,61.67
2023-01-01T15:41:43.663Z,82.33
2023-01-01T15:44:36.299Z,137.00
2023-01-01T15:47:13.843Z,168.00
2023-01-01T15:49:43.809Z,168.33
2023-01-01T15:52:27.502Z,103.00
2023-01-01T15:54:55.329Z,84.00
2023-01-01T15:57:25.811Z,156.00
2023-01-01T15:59:53.948Z,94.00
2023-01-01T16:02:37.620Z,104.00
2023-01-01T16:05:18.858Z,79.00
2023-01-01T16:08:00.180Z,72.00
2023-01-01T16:10:31.941Z,68.00
2023-01-01T16:13:01.931Z,69.00
2023-01-01T16:15:31.785Z,60.00
2023-01-01T16:18:01.264Z,62.25
2023-01-01T16:20:30.824Z,64.00
2023-01-01T16:23:00.379Z,79.00
2023-01-01T16:25:30.161Z,71.33
2023-01-01T16:27:59.869Z,74.33
2023-01-01T16:30:27.649Z,72.50
2023-01-01T16:32:57.571Z,83.33
2023-01-01T16:35:27.228Z,68.67
2023-01-01T16:37:56.831Z,91.33
2023-01-01T16:40:30.277Z,75.00
2023-01-01T16:43:05.848Z,73.50
2023-01-01T16:45:34.437Z,74.00
2023-01-01T16:48:04.248Z,79.00
2023-01-01T16:50:33.836Z,85.00
2023-01-01T16:53:03.423Z,88.00
2023-01-01T16:55:33.545Z,75.33
2023-01-01T16:58:46.861Z,73.33
2023-01-01T17:01:01.245Z,69.00
2023-01-01T17:03:30.899Z,89.00
2023-01-01T17:06:06.453Z,69.00
2023-01-01T17:08:37.580Z,80.00
2023-01-01T17:11:18.452Z,79.67
2023-01-01T17:13:49.078Z,84.00
2023-01-01T17:16:27.115Z,77.75
2023-01-01T17:19:16.691Z,87.33
2023-01-01T17:22:07.315Z,65.33
2023-01-01T17:24:56.820Z,78.33
2023-01-01T17:27:46.526Z,73.33
2023-01-01T17:30:19.852Z,71.00
2023-01-01T17:32:49.549Z,72.50
2023-01-01T17:35:20.742Z,79.00
2023-01-01T17:37:50.213Z,62.33
2023-01-01T17:40:19.781Z,70.67
2023-01-01T17:42:49.282Z,58.67
2023-01-01T17:45:38.832Z,69.00
2023-01-01T17:48:28.322Z,64.67
2023-01-01T17:51:19.645Z,67.25
2023-01-01T17:54:06.551Z,73.75
2023-01-01T17:56:36.339Z,82.00
2023-01-01T17:59:06.115Z,75.00
2023-01-01T18:01:36.011Z,71.67
2023-01-01T18:04:09.548Z,70.67
2023-01-01T18:06:43.298Z,74.00
2023-01-01T18:09:15.008Z,73.50
2023-01-01T18:11:45.509Z,76.33
2023-01-01T18:14:18.452Z,67.00
2023-01-01T18:16:52.130Z,72.00
2023-01-01T18:19:21.789Z,67.67
2023-01-01T18:21:51.435Z,107.00
2023-01-01T18:24:21.032Z,72.33
2023-01-01T18:26:50.574Z,72.00
2023-01-01T18:29:20.158Z,66.50
2023-01-01T18:31:51.563Z,76.00
2023-01-01T18:34:21.318Z,66.00
2023-01-01T18:36:50.778Z,66.25
2023-01-01T18:39:30.295Z,68.00
2023-01-01T18:42:38.263Z,67.00
2023-01-01T18:45:22.393Z,61.33
2023-01-01T18:47:51.967Z,64.67
2023-01-01T18:50:27.807Z,65.00
2023-01-01T18:53:14.310Z,88.67
2023-01-01T18:56:09.712Z,163.86
2023-01-01T18:58:44.057Z,73.33
2023-01-01T19:01:19.172Z,61.00
2023-01-01T19:04:12.378Z,72.00
2023-01-01T19:06:42.310Z,67.50
2023-01-01T19:09:24.469Z,60.33
2023-01-01T19:11:55.813Z,68.67
2023-01-01T19:14:28.886Z,74.67
2023-01-01T19:17:12.103Z,64.00
2023-01-01T19:19:41.827Z,64.00
2023-01-01T19:22:34.054Z,69.33
2023-01-01T19:25:38.090Z,66.00
2023-01-01T19:28:34.121Z,68.00
2023-01-01T19:31:07.150Z,63.00
2023-01-01T19:33:36.762Z,81.33
2023-01-01T19:36:07.899Z,79.33
2023-01-01T19:38:39.625Z,65.33
2023-01-01T19:41:09.614Z,70.00
2023-01-01T19:43:39.561Z,70.33
2023-01-01T19:46:10.074Z,147.50
2023-01-01T19:48:41.174Z,63.00
2023-01-01T19:51:10.733Z,59.67
2023-01-01T19:53:40.325Z,67.67
2023-01-01T19:56:09.621Z,60.67
2023-01-01T19:58:37.837Z,69.00
2023-01-01T20:01:07.497Z,70.67
2023-01-01T20:03:55.427Z,72.67
2023-01-01T20:06:26.964Z,72.33
2023-01-01T20:08:59.167Z,66.67
2023-01-01T20:11:31.853Z,70.25
2023-01-01T20:14:01.403Z,66.25
2023-01-01T20:16:31.045Z,68.25
2023-01-01T20:19:00.708Z,67.33
2023-01-01T20:21:48.898Z,65.67
2023-01-01T20:24:18.540Z,62.67
2023-01-01T20:26:51.234Z,64.67
2023-01-01T20:29:20.834Z,60.33
2023-01-01T20:31:53.657Z,67.25
2023-01-01T20:34:23.981Z,63.75
2023-01-01T20:37:12.035Z,66.50
2023-01-01T20:39:41.729Z,71.33
2023-01-01T20:42:11.320Z,71.00
2023-01-01T20:44:43.309Z,82.25
2023-01-01T20:47:15.954Z,73.33
2023-01-01T20:49:45.659Z,77.67
2023-01-01T20:52:16.677Z,259.00
2023-01-01T20:54:44.459Z,133.00
2023-01-01T20:57:14.080Z,76.00
2023-01-01T20:59:44.842Z,69.67
2023-01-01T21:02:14.818Z,68.00
2023-01-01T21:04:44.558Z,60.33
2023-01-01T21:07:14.174Z,62.67
2023-01-01T21:09:43.710Z,66.67
2023-01-01T21:12:13.718Z,65.00
2023-01-01T21:14:43.956Z,63.00
2023-01-01T21:17:23.217Z,63.00
2023-01-01T21:19:56.782Z,64.33
2023-01-01T21:22:28.293Z,63.00
2023-01-01T21:25:16.782Z,67.67
2023-01-01T21:27:47.615Z,59.33
2023-01-01T21:30:17.478Z,66.33
2023-01-01T21:32:49.843Z,65.50
2023-01-01T21:35:29.657Z,70.00
2023-01-01T21:38:02.752Z,74.33
2023-01-01T21:40:58.858Z,91.50
2023-01-01T21:43:37.618Z,73.00
2023-01-01T21:46:07.137Z,67.00
2023-01-01T21:48:40.505Z,79.67
2023-01-01T21:51:42.413Z,68.33
2023-01-01T21:54:14.492Z,66.00
2023-01-01T21:56:55.769Z,70.00
2023-01-01T21:59:54.987Z,65.33
2023-01-01T22:02:38.904Z,67.50
2023-01-01T22:05:31.232Z,67.00
2023-01-01T22:08:25.290Z,73.67
2023-01-01T22:10:56.818Z,70.67
2023-01-01T22:13:27.928Z,71.00
2023-01-01T22:15:57.536Z,71.00
2023-01-01T22:18:31.153Z,59.25
2023-01-01T22:21:02.869Z,67.00
2023-01-01T22:23:41.642Z,69.50
2023-01-01T22:26:29.312Z,71.67
2023-01-01T22:29:24.716Z,69.67
2023-01-01T22:32:29.944Z,67.00
2023-01-01T22:35:34.121Z,78.67
2023-01-01T22:38:07.527Z,71.33
2023-01-01T22:40:40.975Z,77.67
2023-01-01T22:43:13.648Z,74.75
2023-01-01T22:45:47.754Z,74.25
2023-01-01T22:48:38.809Z,67.67
2023-01-01T22:51:23.247Z,67.33
2023-01-01T22:53:52.933Z,72.67
2023-01-01T22:56:22.497Z,67.00
2023-01-01T22:58:57.304Z,65.33
2023-01-01T23:01:27.203Z,68.00
2023-01-01T23:03:56.815Z,70.75
2023-01-01T23:06:27.048Z,70.33
2023-01-01T23:08:57.842Z,66.67
2023-01-01T23:11:28.591Z,69.00
2023-01-01T23:14:15.823Z,60.50
2023-01-01T23:16:45.332Z,68.33
2023-01-01T23:19:15.988Z,63.33
2023-01-01T23:21:46.217Z,66.00
2023-01-01T23:24:20.709Z,63.67
2023-01-01T23:26:52.051Z,65.67
2023-01-01T23:29:24.002Z,65.00
2023-01-01T23:31:53.659Z,64.00
2023-01-01T23:34:23.635Z,71.67
2023-01-01T23:36:55.395Z,69.33
2023-01-01T23:39:25.011Z,69.67
2023-01-01T23:41:54.637Z,71.00
2023-01-01T23:44:24.076Z,68.50
2023-01-01T23:46:54.493Z,68.33
2023-01-01T23:49:24.286Z,70.67
2023-01-01T23:51:55.413Z,62.00
2023-01-01T23:54:25.001Z,65.00
2023-01-01T23:56:54.564Z,68.67
2023-01-01T23:59:24.094Z,67.00
